Time;durP1;ratioP1;P1;durP2;ratioP2;P2;SDS_P1;SDS_P2;PMS_P1;PMS_P2;Temp;Humidity;BMP_temperature;BMP_pressure;BME280_temperature;BME280_humidity;BME280_pressure;Samples;Min_cycle;Max_cycle;Signal;HPM_P1;HPM_P2
2022/04/11 00:02:00;;;;;;;7.13;3.50;;;2.60;99.90;;;;;;6209731;23;20016;-74
2022/04/11 00:04:28;;;;;;;8.73;3.95;;;2.50;99.90;;;;;;6211022;23;20660;-71
2022/04/11 00:06:54;;;;;;;9.45;3.70;;;2.50;99.90;;;;;;6185250;23;20012;-72
2022/04/11 00:09:20;;;;;;;6.78;4.25;;;2.50;99.90;;;;;;6209270;23;20125;-71
2022/04/11 00:11:46;;;;;;;7.13;4.65;;;2.50;99.90;;;;;;6209339;23;20053;-73
2022/04/11 00:14:13;;;;;;;7.40;4.10;;;2.50;99.90;;;;;;6209178;23;20016;-72
2022/04/11 00:16:39;;;;;;;7.38;4.15;;;2.50;99.90;;;;;;6342415;22;20045;-72
2022/04/11 00:19:06;;;;;;;7.28;5.28;;;2.50;99.90;;;;;;6209037;23;20013;-72
2022/04/11 00:21:32;;;;;;;6.88;4.97;;;2.40;99.90;;;;;;6208898;23;20058;-72
2022/04/11 00:23:58;;;;;;;6.85;4.65;;;2.40;99.90;;;;;;6210160;22;20016;-73
2022/04/11 00:26:23;;;;;;;7.45;4.82;;;2.30;99.90;;;;;;6209913;23;20069;-73
2022/04/11 00:28:49;;;;;;;6.80;4.95;;;2.30;99.90;;;;;;6209704;23;20024;-73
2022/04/11 00:31:15;;;;;;;8.85;6.10;;;2.30;99.90;;;;;;6210222;23;20016;-73
2022/04/11 00:33:40;;;;;;;9.95;5.05;;;2.30;99.90;;;;;;6209559;23;20031;-71
2022/04/11 00:36:06;;;;;;;7.47;5.40;;;2.30;99.90;;;;;;6209861;23;20005;-72
2022/04/11 00:38:31;;;;;;;6.15;5.00;;;2.30;99.90;;;;;;6209832;23;20023;-73
2022/04/11 00:40:57;;;;;;;6.07;4.07;;;2.20;99.90;;;;;;6185131;23;20020;-73
2022/04/11 00:43:30;;;;;;;8.50;4.60;;;2.20;99.90;;;;;;6209397;23;20020;-71
2022/04/11 00:45:56;;;;;;;8.25;4.80;;;2.20;99.90;;;;;;6209867;23;20016;-73
2022/04/11 00:48:22;;;;;;;6.28;4.10;;;2.20;99.90;;;;;;6209371;23;20519;-73
2022/04/11 00:50:48;;;;;;;9.55;3.90;;;2.20;99.90;;;;;;6210293;22;20164;-73
2022/04/11 00:53:14;;;;;;;4.07;3.35;;;2.10;99.90;;;;;;6208775;23;20044;-73
2022/04/11 00:55:39;;;;;;;5.40;3.50;;;2.10;99.90;;;;;;6236933;23;20061;-73
2022/04/11 00:58:05;;;;;;;7.78;4.28;;;2.10;99.90;;;;;;6210012;23;20042;-73
2022/04/11 01:00:31;;;;;;;8.38;4.40;;;2.10;99.90;;;;;;6210094;23;20058;-73
2022/04/11 01:02:57;;;;;;;6.13;3.83;;;2.10;99.90;;;;;;6342011;22;20062;-72
2022/04/11 01:05:22;;;;;;;6.32;4.28;;;2.00;99.90;;;;;;6210058;22;20362;-72
2022/04/11 01:07:51;;;;;;;5.78;3.53;;;2.00;99.90;;;;;;6210051;23;20076;-73
2022/04/11 01:10:17;;;;;;;6.20;3.45;;;2.10;99.90;;;;;;6185176;23;20060;-73
2022/04/11 01:12:43;;;;;;;8.80;3.95;;;2.00;99.90;;;;;;6209138;23;20754;-73
2022/04/11 01:15:09;;;;;;;6.47;3.80;;;2.00;99.90;;;;;;6210002;22;20392;-72
2022/04/11 01:17:37;;;;;;;7.70;4.18;;;1.90;99.90;;;;;;6209527;23;20092;-73
2022/04/11 01:20:08;;;;;;;6.47;3.47;;;1.90;99.90;;;;;;6209692;23;20041;-72
2022/04/11 01:22:34;;;;;;;4.78;2.80;;;1.90;99.90;;;;;;6184588;23;20095;-72
2022/04/11 01:25:01;;;;;;;6.53;3.05;;;1.90;99.90;;;;;;6343108;22;20044;-73
2022/04/11 01:27:27;;;;;;;4.43;2.67;;;1.90;99.90;;;;;;6208512;23;20047;-73
2022/04/11 01:29:53;;;;;;;4.28;2.83;;;1.90;99.90;;;;;;6209833;23;20348;-73
2022/04/11 01:32:18;;;;;;;4.63;3.05;;;1.90;99.90;;;;;;6209391;23;20020;-73
2022/04/11 01:34:44;;;;;;;4.13;2.90;;;1.80;99.90;;;;;;6209724;23;20412;-73
2022/04/11 01:37:10;;;;;;;5.65;3.10;;;1.80;99.90;;;;;;6210789;23;20019;-73
2022/04/11 01:39:37;;;;;;;4.47;2.22;;;1.80;99.90;;;;;;6208975;23;20019;-73
2022/04/11 01:42:03;;;;;;;2.78;2.35;;;1.80;99.90;;;;;;6209195;23;20634;-71
2022/04/11 01:44:28;;;;;;;4.60;2.50;;;1.80;99.90;;;;;;6209640;23;20519;-72
2022/04/11 01:46:54;;;;;;;3.92;2.28;;;1.70;99.90;;;;;;6209885;23;20363;-73
2022/04/11 01:49:20;;;;;;;8.52;3.90;;;1.80;99.90;;;;;;6341873;22;20061;-73
2022/04/11 01:51:45;;;;;;;6.75;2.92;;;1.80;99.90;;;;;;6235630;23;20440;-73
2022/04/11 01:54:11;;;;;;;7.88;3.28;;;1.80;99.90;;;;;;6209612;22;20015;-73
2022/04/11 01:56:37;;;;;;;6.82;3.33;;;1.80;99.90;;;;;;6209408;23;20522;-73
2022/04/11 01:59:02;;;;;;;6.97;2.72;;;1.80;99.90;;;;;;6236797;23;20016;-73
2022/04/11 02:01:29;;;;;;;5.47;2.97;;;1.80;99.90;;;;;;6235068;22;20054;-73
2022/04/11 02:03:55;;;;;;;8.10;2.75;;;1.90;99.90;;;;;;6210131;23;20774;-73
2022/04/11 02:06:20;;;;;;;8.02;2.90;;;1.80;99.90;;;;;;6209284;23;20693;-73
2022/04/11 02:08:46;;;;;;;5.18;3.42;;;1.90;99.90;;;;;;6236183;23;20020;-72
2022/04/11 02:11:12;;;;;;;5.45;3.22;;;1.90;99.90;;;;;;6209242;23;20522;-72
2022/04/11 02:13:38;;;;;;;4.00;3.00;;;1.90;99.90;;;;;;6340822;22;20016;-72
2022/04/11 02:16:03;;;;;;;6.15;3.20;;;2.00;99.90;;;;;;6209232;23;20077;-72
2022/04/11 02:18:29;;;;;;;6.30;3.13;;;2.00;99.90;;;;;;6235831;23;20026;-72
2022/04/11 02:20:55;;;;;;;6.07;2.90;;;2.00;99.90;;;;;;6209012;23;20012;-72
2022/04/11 02:23:20;;;;;;;10.18;3.67;;;2.00;99.90;;;;;;6209367;23;20043;-72
2022/04/11 02:25:46;;;;;;;6.75;3.55;;;2.00;99.90;;;;;;6209360;23;20077;-72
2022/04/11 02:28:12;;;;;;;6.38;2.90;;;2.00;99.90;;;;;;6208224;23;20071;-72
2022/04/11 02:30:39;;;;;;;7.80;3.15;;;2.00;99.90;;;;;;6235168;23;20016;-72
2022/04/11 02:33:05;;;;;;;7.10;2.88;;;1.90;99.90;;;;;;6208698;23;20019;-72
2022/04/11 02:35:31;;;;;;;7.13;2.42;;;1.90;99.90;;;;;;6235693;23;20017;-72
2022/04/11 02:37:56;;;;;;;5.15;2.60;;;1.90;99.90;;;;;;6235955;23;20140;-72
2022/04/11 02:40:22;;;;;;;4.55;3.03;;;1.90;99.90;;;;;;6209302;23;20124;-72
2022/04/11 02:42:48;;;;;;;5.30;3.13;;;2.00;99.90;;;;;;6208638;23;20020;-72
2022/04/11 02:45:15;;;;;;;6.32;3.30;;;2.00;99.90;;;;;;6207847;23;20019;-72
2022/04/11 02:47:41;;;;;;;5.80;2.83;;;1.90;99.90;;;;;;6208397;23;20008;-72
2022/04/11 02:50:08;;;;;;;3.42;2.60;;;1.90;99.90;;;;;;6209293;23;20047;-72
2022/04/11 02:52:34;;;;;;;7.25;2.47;;;1.90;99.90;;;;;;6208883;23;20065;-72
2022/04/11 02:55:00;;;;;;;3.40;2.58;;;1.90;99.90;;;;;;6342177;22;20020;-72
2022/04/11 02:57:29;;;;;;;3.28;2.28;;;1.90;99.90;;;;;;6235269;23;20466;-72
2022/04/11 02:59:56;;;;;;;3.65;2.05;;;1.90;99.90;;;;;;6209022;23;20312;-72
2022/04/11 03:02:21;;;;;;;5.10;2.33;;;1.90;99.90;;;;;;6209215;23;20048;-72
2022/04/11 03:04:47;;;;;;;3.47;2.20;;;1.90;99.90;;;;;;6209496;23;20016;-72
2022/04/11 03:07:13;;;;;;;2.22;1.95;;;1.90;99.90;;;;;;6236295;23;20023;-72
2022/04/11 03:09:39;;;;;;;2.47;1.52;;;1.90;99.90;;;;;;6182886;23;20035;-72
2022/04/11 03:12:05;;;;;;;2.28;1.52;;;1.90;99.90;;;;;;6235866;22;20019;-72
2022/04/11 03:14:31;;;;;;;4.03;1.63;;;1.80;99.90;;;;;;6208908;23;20459;-72
2022/04/11 03:16:57;;;;;;;3.22;1.92;;;1.70;99.90;;;;;;6235898;23;20024;-72
2022/04/11 03:19:23;;;;;;;2.45;1.70;;;1.70;99.90;;;;;;6184193;23;20027;-72
2022/04/11 03:21:49;;;;;;;3.47;1.70;;;1.70;99.90;;;;;;6208639;23;20137;-72
2022/04/11 03:24:15;;;;;;;2.47;1.77;;;1.70;99.90;;;;;;6209202;23;20049;-73
2022/04/11 03:26:40;;;;;;;2.22;1.60;;;1.70;99.90;;;;;;6209456;23;20015;-73
2022/04/11 03:29:06;;;;;;;4.72;1.90;;;1.70;99.90;;;;;;6210992;23;20020;-73
2022/04/11 03:31:32;;;;;;;4.88;1.60;;;1.70;99.90;;;;;;6209639;23;20039;-73
2022/04/11 03:33:57;;;;;;;3.00;1.50;;;1.60;99.90;;;;;;6209832;23;20016;-74
2022/04/11 03:36:24;;;;;;;4.90;1.63;;;1.70;99.90;;;;;;6210274;22;20371;-73
2022/04/11 03:38:50;;;;;;;2.03;1.42;;;1.60;99.90;;;;;;6210698;23;20020;-74
2022/04/11 03:41:16;;;;;;;2.60;2.15;;;1.50;99.90;;;;;;6235293;23;20087;-71
2022/04/11 03:43:42;;;;;;;3.53;1.67;;;1.50;99.90;;;;;;6209178;23;20100;-73
2022/04/11 03:46:08;;;;;;;1.98;1.40;;;1.50;99.90;;;;;;6210780;22;20020;-73
2022/04/11 03:48:34;;;;;;;5.97;1.90;;;1.50;99.90;;;;;;6209689;22;20523;-73
2022/04/11 03:51:00;;;;;;;5.38;1.67;;;1.50;99.90;;;;;;6209258;23;20016;-73
2022/04/11 03:53:26;;;;;;;2.90;1.75;;;1.50;99.90;;;;;;6342564;22;20016;-73
2022/04/11 03:55:51;;;;;;;3.28;1.60;;;1.50;99.90;;;;;;6210057;23;20019;-73
2022/04/11 03:58:17;;;;;;;4.25;1.55;;;1.50;99.90;;;;;;6210577;23;20087;-73
2022/04/11 04:00:43;;;;;;;2.40;1.55;;;1.50;99.90;;;;;;6210062;23;20023;-73
2022/04/11 04:03:10;;;;;;;2.40;1.48;;;1.50;99.90;;;;;;6210653;23;20052;-73
2022/04/11 04:05:45;;;;;;;4.13;1.75;;;1.60;99.90;;;;;;6343021;22;20022;-73
2022/04/11 04:08:12;;;;;;;2.88;1.60;;;1.60;99.90;;;;;;6341868;22;20496;-72
2022/04/11 04:10:38;;;;;;;2.28;1.60;;;1.60;99.90;;;;;;6234873;23;20019;-73
2022/04/11 04:13:04;;;;;;;1.90;1.40;;;1.60;99.90;;;;;;6236440;23;20016;-73
2022/04/11 04:15:30;;;;;;;2.28;1.70;;;1.60;99.90;;;;;;6184929;23;20103;-73
2022/04/11 04:17:56;;;;;;;2.90;1.98;;;1.70;99.90;;;;;;6209492;22;20019;-73
2022/04/11 04:20:26;;;;;;;2.72;1.80;;;1.70;99.90;;;;;;6236123;23;20024;-72
2022/04/11 04:22:56;;;;;;;2.95;1.95;;;1.70;99.90;;;;;;6209598;23;20009;-73
2022/04/11 04:25:22;;;;;;;1.95;1.70;;;1.80;99.90;;;;;;6210738;23;20061;-73
2022/04/11 04:27:48;;;;;;;2.40;2.08;;;1.80;99.90;;;;;;6209277;23;20024;-73
2022/04/11 04:30:14;;;;;;;3.05;2.05;;;1.80;99.90;;;;;;6209728;23;20012;-73
2022/04/11 04:32:41;;;;;;;6.50;2.13;;;1.80;99.90;;;;;;6209215;23;20097;-73
2022/04/11 04:35:08;;;;;;;4.32;1.90;;;1.90;99.90;;;;;;6237336;23;20087;-73
2022/04/11 04:37:33;;;;;;;4.75;2.13;;;1.90;99.90;;;;;;6208775;23;20050;-72
2022/04/11 04:39:59;;;;;;;2.58;2.03;;;1.90;99.90;;;;;;6236290;23;20016;-73
2022/04/11 04:42:26;;;;;;;3.83;1.98;;;2.00;99.90;;;;;;6342754;22;20012;-73
2022/04/11 04:44:53;;;;;;;4.15;2.10;;;2.00;99.90;;;;;;6236303;23;20451;-72
2022/04/11 04:47:18;;;;;;;2.50;1.80;;;2.00;99.90;;;;;;6209295;23;20050;-72
2022/04/11 04:49:45;;;;;;;3.88;2.30;;;2.00;99.90;;;;;;6209083;23;20753;-72
2022/04/11 04:52:11;;;;;;;3.33;2.13;;;2.10;99.90;;;;;;6210435;22;20466;-73
2022/04/11 04:54:36;;;;;;;3.38;1.92;;;2.10;99.90;;;;;;6209472;23;20008;-74
2022/04/11 04:57:03;;;;;;;2.50;2.17;;;2.10;99.90;;;;;;6244830;22;20103;-74
2022/04/11 04:59:28;;;;;;;2.22;1.88;;;2.10;99.90;;;;;;6240108;22;20676;-74
2022/04/11 05:01:54;;;;;;;3.78;1.90;;;2.20;99.90;;;;;;6214499;22;20016;-73
2022/04/11 05:04:20;;;;;;;2.97;1.73;;;2.20;99.90;;;;;;6240634;22;20051;-74
2022/04/11 05:06:45;;;;;;;4.30;2.08;;;2.20;99.90;;;;;;6215082;22;20094;-74
2022/04/11 05:09:11;;;;;;;3.83;1.83;;;2.20;99.90;;;;;;6212980;22;20015;-74
2022/04/11 05:11:37;;;;;;;3.28;1.98;;;2.30;99.90;;;;;;6239658;22;20100;-74
2022/04/11 05:14:02;;;;;;;3.00;2.00;;;2.30;99.90;;;;;;6213959;22;20059;-74
2022/04/11 05:16:28;;;;;;;5.50;1.90;;;2.30;99.90;;;;;;6239949;22;20050;-74
2022/04/11 05:18:54;;;;;;;3.97;2.45;;;2.30;99.90;;;;;;6214157;22;20449;-74
2022/04/11 05:21:19;;;;;;;4.35;2.88;;;2.40;99.90;;;;;;6240043;22;20556;-74
2022/04/11 05:23:45;;;;;;;3.55;2.47;;;2.40;99.90;;;;;;6239994;22;20488;-74
2022/04/11 05:26:11;;;;;;;4.95;2.83;;;2.40;99.90;;;;;;6241002;22;20474;-74
2022/04/11 05:28:36;;;;;;;3.58;2.67;;;2.50;99.90;;;;;;6239920;22;20022;-73
2022/04/11 05:31:02;;;;;;;3.72;2.67;;;2.50;99.90;;;;;;6212766;22;20465;-73
2022/04/11 05:33:28;;;;;;;4.40;2.60;;;2.50;99.90;;;;;;6238941;22;20506;-74
2022/04/11 05:35:56;;;;;;;3.55;2.40;;;2.50;99.90;;;;;;6239280;22;20438;-74
2022/04/11 05:38:22;;;;;;;3.55;2.40;;;2.60;99.90;;;;;;6238646;22;20016;-73
2022/04/11 05:40:47;;;;;;;3.10;2.55;;;2.60;99.90;;;;;;6237668;22;20130;-74
2022/04/11 05:43:13;;;;;;;2.80;2.10;;;2.60;99.90;;;;;;6238664;22;20543;-73
2022/04/11 05:45:40;;;;;;;3.20;2.10;;;2.60;99.90;;;;;;6239746;22;20098;-74
2022/04/11 05:48:06;;;;;;;3.72;2.30;;;2.70;99.90;;;;;;6213480;22;20087;-74
2022/04/11 05:50:31;;;;;;;5.50;2.22;;;2.70;99.90;;;;;;6239153;22;20046;-73
2022/04/11 05:52:57;;;;;;;5.97;2.95;;;2.80;99.90;;;;;;6239177;22;20015;-74
2022/04/11 05:55:23;;;;;;;4.45;2.35;;;2.80;99.90;;;;;;6240020;22;20039;-74
2022/04/11 05:57:49;;;;;;;3.20;2.40;;;2.80;99.90;;;;;;6239775;22;20007;-73
2022/04/11 06:00:16;;;;;;;3.50;2.50;;;2.90;99.90;;;;;;6240179;22;20062;-73
2022/04/11 06:02:42;;;;;;;3.17;2.30;;;2.90;99.90;;;;;;6240110;22;20016;-74
2022/04/11 06:05:09;;;;;;;7.38;2.70;;;2.90;99.90;;;;;;6238504;22;20104;-73
2022/04/11 06:07:35;;;;;;;3.95;2.70;;;3.00;99.90;;;;;;6239644;22;20032;-73
2022/04/11 06:10:01;;;;;;;4.20;2.90;;;3.00;99.90;;;;;;6241484;22;20011;-72
2022/04/11 06:12:27;;;;;;;3.97;3.17;;;3.00;99.90;;;;;;6241027;22;20057;-73
2022/04/11 06:14:56;;;;;;;6.20;3.08;;;3.10;99.90;;;;;;6239903;22;20503;-73
2022/04/11 06:17:23;;;;;;;5.72;3.38;;;3.10;99.90;;;;;;6242290;22;20087;-73
2022/04/11 06:19:53;;;;;;;10.60;3.40;;;3.20;99.90;;;;;;6241685;22;20016;-74
2022/04/11 06:22:19;;;;;;;6.18;3.05;;;3.30;99.90;;;;;;6192098;22;20015;-74
2022/04/11 06:24:46;;;;;;;6.72;3.13;;;3.30;99.90;;;;;;6241258;22;20020;-73
2022/04/11 06:27:12;;;;;;;6.43;3.40;;;3.40;99.90;;;;;;6242434;22;20064;-74
2022/04/11 06:29:38;;;;;;;4.22;3.00;;;3.40;99.90;;;;;;6242398;22;20020;-73
2022/04/11 06:32:05;;;;;;;5.55;3.10;;;3.50;99.90;;;;;;6242552;22;20436;-73
2022/04/11 06:34:34;;;;;;;4.60;3.17;;;3.60;99.90;;;;;;6217307;22;20054;-74
2022/04/11 06:37:00;;;;;;;6.00;3.17;;;3.60;99.90;;;;;;6241928;22;20012;-73
2022/04/11 06:39:26;;;;;;;7.03;3.67;;;3.70;99.90;;;;;;6241891;22;20470;-75
2022/04/11 06:41:52;;;;;;;5.10;3.50;;;3.80;99.90;;;;;;6241668;22;20020;-73
2022/04/11 06:44:18;;;;;;;7.47;3.70;;;3.90;99.90;;;;;;6242348;22;20019;-74
2022/04/11 06:46:43;;;;;;;4.85;3.60;;;3.90;99.90;;;;;;6242541;22;20478;-73
2022/04/11 06:49:09;;;;;;;4.85;3.63;;;4.00;99.90;;;;;;6242399;22;20096;-73
2022/04/11 06:51:35;;;;;;;8.75;4.25;;;4.10;99.90;;;;;;6242342;22;20385;-74
2022/04/11 06:54:00;;;;;;;5.85;3.60;;;4.10;99.90;;;;;;6242720;22;20023;-73
2022/04/11 06:56:26;;;;;;;9.52;4.07;;;4.20;99.90;;;;;;6242206;22;20397;-75
2022/04/11 06:58:51;;;;;;;7.22;3.83;;;4.30;99.90;;;;;;6242576;22;20510;-73
2022/04/11 07:01:17;;;;;;;5.60;3.85;;;4.40;99.90;;;;;;6243091;22;20038;-74
2022/04/11 07:03:43;;;;;;;6.43;4.00;;;4.40;99.90;;;;;;6219139;22;20454;-73
2022/04/11 07:06:10;;;;;;;13.70;4.50;;;4.50;99.90;;;;;;6243897;22;20515;-74
2022/04/11 07:08:36;;;;;;;8.88;4.10;;;4.60;99.90;;;;;;6243712;22;20047;-73
2022/04/11 07:11:04;;;;;;;6.43;4.43;;;4.70;99.90;;;;;;6243751;22;20008;-74
2022/04/11 07:13:31;;;;;;;7.40;4.18;;;4.80;99.90;;;;;;6243633;22;20007;-73
2022/04/11 07:15:56;;;;;;;7.55;4.57;;;4.80;99.90;;;;;;6244090;22;20114;-73
2022/04/11 07:18:27;;;;;;;7.72;4.80;;;4.90;99.90;;;;;;6243754;22;20015;-73
2022/04/11 07:20:53;;;;;;;6.38;4.68;;;5.00;99.90;;;;;;6243534;22;20011;-73
2022/04/11 07:23:18;;;;;;;9.85;4.97;;;5.10;99.90;;;;;;6243860;22;20107;-73
2022/04/11 07:25:44;;;;;;;10.77;5.30;;;5.20;99.90;;;;;;6243584;22;20572;-73
2022/04/11 07:28:10;;;;;;;6.93;5.00;;;5.30;99.90;;;;;;6243548;22;20105;-73
2022/04/11 07:30:36;;;;;;;7.93;5.22;;;5.40;99.90;;;;;;6243253;22;20067;-74
2022/04/11 07:33:01;;;;;;;9.23;5.55;;;5.50;99.90;;;;;;6243695;22;20335;-73
2022/04/11 07:35:27;;;;;;;9.70;5.57;;;5.60;99.90;;;;;;6243813;22;20018;-74
2022/04/11 07:37:53;;;;;;;9.63;6.20;;;5.60;99.90;;;;;;6243821;22;20012;-74
2022/04/11 07:40:19;;;;;;;10.65;5.70;;;5.70;99.90;;;;;;6243354;22;20098;-73
2022/04/11 07:42:44;;;;;;;9.30;5.88;;;5.70;99.90;;;;;;6243671;22;20031;-73
2022/04/11 07:45:10;;;;;;;11.40;5.18;;;5.90;99.90;;;;;;6243440;22;20019;-74
2022/04/11 07:47:36;;;;;;;8.80;5.20;;;6.00;99.90;;;;;;6243489;22;20065;-74
2022/04/11 07:50:02;;;;;;;8.48;5.18;;;6.10;99.90;;;;;;6243153;22;20016;-74
2022/04/11 07:52:28;;;;;;;10.23;5.47;;;6.20;99.90;;;;;;6243417;22;20011;-74
2022/04/11 07:54:54;;;;;;;9.60;5.95;;;6.20;99.90;;;;;;6243702;22;20046;-74
2022/04/11 07:57:21;;;;;;;7.57;5.10;;;6.40;99.90;;;;;;6243474;22;20015;-75
2022/04/11 07:59:47;;;;;;;10.23;5.65;;;6.50;99.90;;;;;;6243154;22;20605;-74
2022/04/11 08:02:12;;;;;;;7.82;4.90;;;6.60;99.90;;;;;;6242635;22;20084;-74
2022/04/11 08:04:38;;;;;;;8.45;5.40;;;6.70;99.90;;;;;;6242953;22;20027;-74
2022/04/11 08:07:04;;;;;;;9.13;5.63;;;6.90;99.90;;;;;;6217289;22;20046;-74
2022/04/11 08:09:30;;;;;;;9.93;5.75;;;7.00;99.90;;;;;;6240441;22;20015;-72
2022/04/11 08:11:55;;;;;;;10.38;5.18;;;7.10;99.90;;;;;;6242359;22;20008;-77
2022/04/11 08:14:21;;;;;;;10.02;5.03;;;7.20;99.90;;;;;;6243464;22;20086;-77
2022/04/11 08:16:47;;;;;;;11.32;6.00;;;7.30;99.90;;;;;;6242668;22;20065;-74
2022/04/11 08:19:13;;;;;;;29.88;13.70;;;7.40;99.90;;;;;;6242840;22;20073;-74
2022/04/11 08:21:39;;;;;;;13.63;6.07;;;7.60;99.90;;;;;;6241974;22;20015;-74
2022/04/11 08:24:05;;;;;;;20.33;10.32;;;7.70;99.90;;;;;;6242759;22;20016;-74
2022/04/11 08:26:31;;;;;;;19.33;7.50;;;7.80;99.90;;;;;;6243192;22;20328;-74
2022/04/11 08:28:56;;;;;;;14.50;7.80;;;8.00;99.90;;;;;;6242748;22;20019;-74
2022/04/11 08:31:22;;;;;;;10.60;5.63;;;8.10;99.90;;;;;;6241737;22;20012;-74
2022/04/11 08:33:48;;;;;;;14.32;6.65;;;8.20;99.90;;;;;;6242783;22;20020;-74
2022/04/11 08:36:13;;;;;;;19.08;8.88;;;8.40;99.90;;;;;;6218163;22;20043;-74
2022/04/11 08:38:39;;;;;;;14.35;6.45;;;8.50;99.90;;;;;;6242715;22;20015;-74
2022/04/11 08:41:15;;;;;;;28.70;10.13;;;8.70;99.90;;;;;;6242850;22;20015;-75
2022/04/11 08:43:41;;;;;;;8.15;4.70;;;8.80;99.90;;;;;;6269183;22;20064;-74
2022/04/11 08:46:07;;;;;;;11.90;4.43;;;8.90;99.90;;;;;;6243705;22;20007;-79
2022/04/11 08:48:33;;;;;;;9.57;4.78;;;9.20;99.90;;;;;;6243433;22;20024;-80
2022/04/11 08:50:59;;;;;;;8.27;4.68;;;9.20;99.90;;;;;;6193395;22;20023;-80
2022/04/11 08:53:25;;;;;;;6.93;4.70;;;9.30;99.90;;;;;;6217416;22;20043;-79
2022/04/11 08:55:51;;;;;;;9.18;4.40;;;9.50;99.90;;;;;;6242862;22;20016;-79
2022/04/11 08:58:17;;;;;;;6.90;4.60;;;9.60;99.90;;;;;;6242495;22;20015;-73
2022/04/11 09:00:43;;;;;;;8.38;4.68;;;9.80;99.90;;;;;;6241092;22;20016;-79
2022/04/11 09:03:09;;;;;;;7.07;4.47;;;10.00;99.90;;;;;;6242427;22;20087;-78
2022/04/11 09:05:35;;;;;;;9.10;4.88;;;10.20;99.90;;;;;;6217025;22;20056;-78
2022/04/11 09:08:01;;;;;;;7.40;4.80;;;10.30;99.90;;;;;;6243095;22;20667;-78
2022/04/11 09:10:28;;;;;;;9.50;4.50;;;10.40;99.90;;;;;;6242950;22;20008;-78
2022/04/11 09:12:56;;;;;;;7.25;4.45;;;10.50;99.90;;;;;;6243243;22;20019;-77
2022/04/11 09:15:23;;;;;;;7.13;4.80;;;10.60;99.90;;;;;;6242691;22;20637;-77
2022/04/11 09:17:50;;;;;;;6.65;4.22;;;10.70;99.90;;;;;;6218286;22;20018;-78
2022/04/11 09:20:21;;;;;;;7.97;4.20;;;10.80;99.90;;;;;;6242461;22;20030;-78
2022/04/11 09:22:47;;;;;;;9.73;4.05;;;11.00;99.90;;;;;;6242706;22;20018;-78
2022/04/11 09:25:14;;;;;;;5.95;3.72;;;11.10;99.90;;;;;;6242868;22;20455;-77
2022/04/11 09:27:41;;;;;;;6.63;3.67;;;11.30;99.90;;;;;;6243244;22;20046;-78
2022/04/11 09:30:28;;;;;;;7.47;3.72;;;11.40;99.90;;;;;;6242688;22;20011;-78
2022/04/11 09:33:15;;;;;;;6.32;3.58;;;11.60;98.50;;;;;;6217749;22;20008;-78
2022/04/11 09:35:44;;;;;;;7.95;4.85;;;11.70;94.60;;;;;;6242866;22;20007;-79
2022/04/11 09:38:21;;;;;;;8.50;4.97;;;11.90;97.80;;;;;;6217708;22;20012;-78
2022/04/11 09:40:48;;;;;;;9.30;5.18;;;12.10;92.10;;;;;;6217398;22;20012;-78
2022/04/11 09:43:15;;;;;;;9.45;4.90;;;12.20;91.70;;;;;;6242976;22;20531;-78
2022/04/11 09:45:45;;;;;;;8.00;4.18;;;12.40;92.00;;;;;;6217838;22;20539;-78
2022/04/11 09:48:19;;;;;;;7.43;4.30;;;12.50;92.10;;;;;;6243178;22;20008;-78
2022/04/11 09:50:47;;;;;;;8.40;4.70;;;12.70;91.10;;;;;;6242469;22;20094;-80
2022/04/11 09:53:14;;;;;;;9.00;4.60;;;12.80;90.70;;;;;;6217719;22;20068;-79
2022/04/11 09:55:42;;;;;;;9.85;4.95;;;12.90;87.30;;;;;;6242687;22;20317;-78
2022/04/11 09:58:08;;;;;;;8.30;4.78;;;13.00;87.60;;;;;;6243023;22;20023;-79
2022/04/11 10:00:39;;;;;;;8.82;4.63;;;13.10;87.80;;;;;;6242859;22;20437;-79
2022/04/11 10:03:06;;;;;;;14.52;6.55;;;13.20;83.50;;;;;;6217673;22;20641;-78
2022/04/11 10:05:36;;;;;;;11.30;6.30;;;13.30;85.40;;;;;;6244505;22;20459;-78
2022/04/11 10:08:07;;;;;;;9.18;6.57;;;13.40;83.40;;;;;;6221803;22;20008;-78
2022/04/11 10:10:34;;;;;;;10.10;5.18;;;13.50;77.60;;;;;;6221650;22;20008;-78
2022/04/11 10:13:01;;;;;;;9.18;5.10;;;13.60;75.60;;;;;;6247230;22;20055;-79
2022/04/11 10:15:27;;;;;;;23.20;7.13;;;13.70;72.50;;;;;;6247674;22;20030;-78
2022/04/11 10:17:54;;;;;;;16.00;8.15;;;13.90;70.70;;;;;;6250765;22;20452;-79
2022/04/11 10:20:28;;;;;;;19.15;8.88;;;14.00;71.30;;;;;;6249308;22;20008;-78
2022/04/11 10:23:10;;;;;;;12.73;6.18;;;14.10;69.00;;;;;;6249604;22;20327;-78
2022/04/11 10:25:50;;;;;;;8.93;5.45;;;14.30;69.20;;;;;;6221758;22;20529;-78
2022/04/11 10:28:25;;;;;;;8.43;5.55;;;14.40;64.10;;;;;;6248134;22;20016;-79
2022/04/11 10:31:12;;;;;;;8.82;5.05;;;14.50;64.00;;;;;;6219247;22;20019;-78
2022/04/11 10:33:43;;;;;;;9.07;5.07;;;14.60;64.20;;;;;;6244371;22;20018;-78
2022/04/11 10:36:28;;;;;;;7.80;5.05;;;14.70;63.90;;;;;;6244655;22;20379;-78
2022/04/11 10:39:12;;;;;;;7.60;5.20;;;14.90;63.90;;;;;;6218911;22;20351;-79
2022/04/11 10:41:56;;;;;;;11.43;5.28;;;14.90;63.20;;;;;;6218008;22;20026;-79
2022/04/11 10:44:46;;;;;;;10.55;5.88;;;15.10;61.20;;;;;;6219312;22;20034;-79
2022/04/11 10:47:12;;;;;;;7.97;5.10;;;15.20;61.60;;;;;;6194069;22;20012;-79
2022/04/11 10:49:50;;;;;;;7.68;5.63;;;15.20;61.90;;;;;;6218663;22;20016;-79
2022/04/11 10:52:29;;;;;;;9.32;5.80;;;15.30;61.20;;;;;;6219041;22;20056;-79
2022/04/11 10:54:56;;;;;;;7.85;5.70;;;15.50;61.70;;;;;;6244754;22;20008;-78
2022/04/11 10:57:35;;;;;;;9.27;5.88;;;15.60;61.30;;;;;;6324905;22;20018;-78
2022/04/11 11:00:07;;;;;;;8.10;5.60;;;15.70;57.90;;;;;;6216376;22;20012;-77
2022/04/11 11:03:08;;;;;;;9.32;5.70;;;15.90;58.80;;;;;;6212282;23;20342;-78
2022/04/11 11:05:43;;;;;;;11.02;6.40;;;16.10;56.10;;;;;;6213958;23;20076;-78
2022/04/11 11:08:11;;;;;;;9.43;5.88;;;16.00;54.80;;;;;;6190097;23;20017;-77
2022/04/11 11:10:49;;;;;;;9.77;6.15;;;15.90;55.30;;;;;;6190759;23;20017;-79
2022/04/11 11:13:39;;;;;;;9.57;6.13;;;16.00;58.40;;;;;;6213163;23;20010;-77
2022/04/11 11:16:09;;;;;;;10.40;6.30;;;16.20;53.10;;;;;;6213318;23;20008;-79
2022/04/11 11:18:46;;;;;;;9.07;5.97;;;16.30;56.00;;;;;;6212153;23;20016;-79
2022/04/11 11:21:17;;;;;;;9.35;6.25;;;16.10;51.10;;;;;;6212625;23;20044;-79
2022/04/11 11:24:12;;;;;;;10.05;6.55;;;16.20;53.80;;;;;;6212979;23;20027;-79
2022/04/11 11:26:59;;;;;;;8.30;6.35;;;16.30;48.00;;;;;;6212402;23;20016;-79
2022/04/11 11:29:43;;;;;;;10.02;6.63;;;16.20;52.80;;;;;;6187738;23;20016;-77
2022/04/11 11:32:12;;;;;;;8.75;6.95;;;16.40;52.90;;;;;;6212891;23;20009;-79
2022/04/11 11:34:39;;;;;;;8.57;6.07;;;16.50;51.00;;;;;;6188967;23;20012;-79
2022/04/11 11:37:10;;;;;;;9.85;6.93;;;16.70;51.60;;;;;;6211305;23;20069;-79
2022/04/11 11:39:38;;;;;;;9.90;6.40;;;16.90;51.50;;;;;;6211870;23;20012;-78
2022/04/11 11:42:14;;;;;;;11.15;6.25;;;17.10;52.60;;;;;;6212422;23;20020;-78
2022/04/11 11:44:48;;;;;;;9.75;6.68;;;17.30;50.90;;;;;;6212916;23;20016;-79
2022/04/11 11:47:14;;;;;;;7.60;6.18;;;17.40;50.70;;;;;;6188635;23;20016;-79
2022/04/11 11:49:46;;;;;;;8.45;6.15;;;17.50;48.50;;;;;;6213276;23;20009;-79
2022/04/11 11:52:12;;;;;;;8.50;6.68;;;17.70;50.10;;;;;;6187840;23;20015;-79
2022/04/11 11:54:40;;;;;;;8.52;6.80;;;17.70;50.60;;;;;;6213036;23;20016;-79
2022/04/11 11:57:24;;;;;;;10.15;6.65;;;17.60;48.40;;;;;;6212576;23;20012;-78
2022/04/11 11:59:55;;;;;;;8.07;6.55;;;17.60;49.20;;;;;;6187183;23;20016;-79
2022/04/11 12:05:18;;;;;;;9.18;6.93;;;17.80;51.30;;;;;;6213297;23;20012;-78
2022/04/11 12:07:44;;;;;;;11.40;6.80;;;17.80;50.60;;;;;;6187362;23;20020;-79
2022/04/11 12:10:10;;;;;;;9.10;6.65;;;17.60;45.10;;;;;;6212608;23;20057;-78
2022/04/11 12:12:37;;;;;;;9.88;6.90;;;17.60;50.00;;;;;;6211564;23;20064;-78
2022/04/11 12:15:06;;;;;;;13.15;7.47;;;17.80;50.40;;;;;;6213013;23;20016;-79
2022/04/11 12:17:38;;;;;;;8.77;6.57;;;17.90;51.10;;;;;;6212625;23;20023;-78
2022/04/11 12:20:07;;;;;;;9.98;6.70;;;18.00;50.40;;;;;;6188095;23;20020;-78
2022/04/11 12:22:33;;;;;;;9.48;6.22;;;18.20;48.90;;;;;;6212585;23;20165;-78
2022/04/11 12:24:58;;;;;;;10.88;6.57;;;18.30;46.80;;;;;;6213698;23;20048;-78
2022/04/11 12:27:24;;;;;;;9.05;7.10;;;18.30;49.70;;;;;;6213014;23;20028;-78
2022/04/11 12:29:50;;;;;;;9.05;6.75;;;18.60;48.30;;;;;;6212634;23;20100;-78
2022/04/11 12:32:16;;;;;;;8.73;6.22;;;18.50;47.20;;;;;;6212973;23;20031;-78
2022/04/11 12:34:43;;;;;;;11.82;7.10;;;18.60;48.00;;;;;;6213111;23;20019;-78
2022/04/11 12:37:13;;;;;;;10.10;6.60;;;18.70;47.00;;;;;;6213066;23;20016;-77
2022/04/11 12:39:56;;;;;;;9.18;7.10;;;18.80;48.90;;;;;;6212437;23;20482;-77
2022/04/11 12:42:24;;;;;;;9.75;6.90;;;18.80;47.70;;;;;;6212847;23;20012;-77
2022/04/11 12:45:12;;;;;;;7.93;6.78;;;18.60;43.70;;;;;;6212222;23;20118;-77
2022/04/11 12:48:00;;;;;;;8.88;6.45;;;18.60;45.10;;;;;;6187854;23;20016;-77
2022/04/11 12:50:26;;;;;;;8.57;6.05;;;18.60;46.20;;;;;;6212849;23;20012;-77
2022/04/11 12:52:51;;;;;;;8.93;6.07;;;18.90;46.60;;;;;;6212637;23;20368;-77
2022/04/11 12:55:27;;;;;;;11.68;6.25;;;19.10;44.70;;;;;;6213319;23;20016;-77
2022/04/11 12:58:21;;;;;;;9.35;6.38;;;19.20;46.50;;;;;;6211526;23;20060;-77
2022/04/11 13:00:56;;;;;;;9.07;6.10;;;19.30;46.10;;;;;;6186381;23;20026;-78